createdAt,value
2018-01-29T00:01:30.769Z,7.22
2018-01-29T00:03:59.384Z,8.73
2018-01-29T00:06:26.923Z,8.85
2018-01-29T00:08:55.108Z,8.77
2018-01-29T00:11:24.536Z,8.57
2018-01-29T00:13:52.126Z,8.52
2018-01-29T00:16:20.495Z,9.48
2018-01-29T00:18:48.020Z,9.18
2018-01-29T00:21:15.542Z,8.93
2018-01-29T00:23:44.861Z,9.15
2018-01-29T00:26:13.188Z,9.38
2018-01-29T00:28:40.735Z,8.73
2018-01-29T00:31:08.257Z,8.77
2018-01-29T00:33:36.570Z,8.93
2018-01-29T00:36:04.620Z,8.73
2018-01-29T00:38:32.156Z,8.80
2018-01-29T00:40:59.687Z,7.65
2018-01-29T00:43:27.269Z,8.10
2018-01-29T00:45:54.914Z,7.78
2018-01-29T00:48:22.451Z,8.30
2018-01-29T00:50:51.499Z,7.68
2018-01-29T00:53:19.092Z,6.82
2018-01-29T00:55:46.672Z,6.75
2018-01-29T00:58:14.994Z,6.90
2018-01-29T01:00:42.523Z,6.57
2018-01-29T01:03:10.626Z,6.18
2018-01-29T01:05:38.931Z,6.75
2018-01-29T01:08:06.541Z,7.03
2018-01-29T01:10:34.676Z,7.20
2018-01-29T01:13:02.210Z,7.27
2018-01-29T01:15:30.547Z,8.73
2018-01-29T01:17:58.076Z,9.80
2018-01-29T01:20:25.595Z,9.95
2018-01-29T01:22:53.174Z,11.23
2018-01-29T01:25:21.688Z,10.75
2018-01-29T01:27:49.499Z,12.13
2018-01-29T01:30:17.067Z,12.03
2018-01-29T01:32:44.580Z,11.43
2018-01-29T01:35:13.400Z,10.27
2018-01-29T01:37:41.313Z,12.65
2018-01-29T01:40:08.901Z,11.50
2018-01-29T01:42:37.244Z,13.40
2018-01-29T01:45:04.792Z,12.37
2018-01-29T01:47:32.655Z,11.57
2018-01-29T01:50:00.172Z,11.00
2018-01-29T01:52:28.651Z,12.60
2018-01-29T01:54:56.204Z,11.40
2018-01-29T01:57:23.815Z,11.93
2018-01-29T01:59:51.386Z,11.98
2018-01-29T02:02:19.004Z,10.77
2018-01-29T02:04:47.560Z,12.40
2018-01-29T02:07:15.101Z,12.05
2018-01-29T02:09:43.391Z,11.97
2018-01-29T02:12:11.348Z,11.33
2018-01-29T02:14:40.527Z,11.75
2018-01-29T02:17:08.858Z,11.93
2018-01-29T02:19:38.016Z,11.20
2018-01-29T02:22:05.557Z,11.13
2018-01-29T02:24:33.104Z,10.80
2018-01-29T02:27:01.492Z,11.07
2018-01-29T02:29:29.033Z,11.57
2018-01-29T02:31:56.563Z,10.70
2018-01-29T02:34:24.110Z,11.63
2018-01-29T02:36:51.711Z,12.33
2018-01-29T02:39:21.100Z,12.77
2018-01-29T02:41:49.454Z,11.30
2018-01-29T02:44:18.361Z,11.03
2018-01-29T02:46:46.841Z,10.65
2018-01-29T02:49:14.772Z,9.70
2018-01-29T02:51:44.023Z,9.10
2018-01-29T02:54:11.552Z,9.53
2018-01-29T02:56:40.003Z,10.13
2018-01-29T02:59:08.251Z,9.60
2018-01-29T03:01:35.805Z,8.45
2018-01-29T03:04:04.352Z,8.23
2018-01-29T03:06:32.647Z,9.63
2018-01-29T03:09:00.177Z,8.77
2018-01-29T03:11:27.687Z,9.17
2018-01-29T03:13:55.235Z,8.23
2018-01-29T03:16:22.773Z,8.70
2018-01-29T03:18:50.282Z,7.47
2018-01-29T03:21:18.034Z,7.73
2018-01-29T03:23:46.693Z,8.05
2018-01-29T03:26:14.240Z,7.53
2018-01-29T03:28:41.787Z,8.10
2018-01-29T03:31:09.293Z,7.27
2018-01-29T03:33:36.966Z,8.00
2018-01-29T03:36:04.483Z,7.37
2018-01-29T03:38:32.023Z,7.57
2018-01-29T03:40:59.532Z,6.50
2018-01-29T03:43:27.049Z,7.37
2018-01-29T03:45:55.327Z,7.83
2018-01-29T03:48:23.614Z,7.07
2018-01-29T03:50:51.421Z,6.93
2018-01-29T03:53:19.005Z,7.27
2018-01-29T03:55:46.532Z,7.30
2018-01-29T03:58:14.075Z,8.43
2018-01-29T04:00:42.385Z,8.63
2018-01-29T04:03:09.944Z,8.77
2018-01-29T04:05:38.171Z,9.60
2018-01-29T04:08:06.196Z,9.83
2018-01-29T04:10:34.924Z,9.17
2018-01-29T04:13:02.474Z,10.37
2018-01-29T04:15:30.301Z,9.77
2018-01-29T04:17:59.541Z,9.30
2018-01-29T04:20:27.068Z,10.23
2018-01-29T04:22:56.275Z,9.97
2018-01-29T04:25:24.582Z,9.13
2018-01-29T04:27:52.112Z,9.47
2018-01-29T04:30:20.407Z,9.30
2018-01-29T04:32:48.856Z,8.80
2018-01-29T04:35:17.176Z,8.98
2018-01-29T04:37:45.463Z,9.60
2018-01-29T04:40:12.996Z,10.50
2018-01-29T04:42:40.528Z,9.47
2018-01-29T04:45:08.127Z,9.67
2018-01-29T04:47:35.630Z,9.37
2018-01-29T04:50:03.146Z,8.97
2018-01-29T04:52:30.775Z,9.00
2018-01-29T04:54:58.290Z,8.97
2018-01-29T04:57:25.826Z,9.03
2018-01-29T04:59:53.381Z,9.30
2018-01-29T05:02:20.924Z,8.77
2018-01-29T05:04:48.448Z,9.40
2018-01-29T05:07:16.063Z,9.53
2018-01-29T05:09:43.642Z,9.77
2018-01-29T05:12:11.222Z,10.98
2018-01-29T05:14:38.757Z,10.10
2018-01-29T05:17:06.293Z,9.97
2018-01-29T05:19:34.710Z,33.63
2018-01-29T05:22:02.252Z,11.90
2018-01-29T05:24:30.571Z,8.80
2018-01-29T05:26:58.112Z,8.73
2018-01-29T05:29:25.666Z,8.52
2018-01-29T05:31:53.253Z,7.80
2018-01-29T05:34:21.984Z,8.73
2018-01-29T05:37:06.355Z,8.87
2018-01-29T05:39:34.657Z,8.10
2018-01-29T05:42:02.967Z,8.23
2018-01-29T05:44:30.525Z,8.00
2018-01-29T05:46:58.065Z,8.07
2018-01-29T05:49:26.390Z,8.60
2018-01-29T05:51:53.916Z,8.67
2018-01-29T05:54:22.195Z,9.17
2018-01-29T05:56:50.560Z,9.33
2018-01-29T05:59:19.731Z,9.40
2018-01-29T06:01:47.319Z,10.47
2018-01-29T06:04:14.860Z,9.00
2018-01-29T06:06:42.421Z,10.00
2018-01-29T06:09:10.174Z,9.20
2018-01-29T06:11:38.004Z,8.50
2018-01-29T06:14:05.712Z,9.17
2018-01-29T06:16:33.430Z,8.73
2018-01-29T06:19:00.964Z,9.43
2018-01-29T06:21:29.289Z,7.82
2018-01-29T06:23:57.593Z,8.20
2018-01-29T06:26:25.164Z,8.23
2018-01-29T06:28:52.742Z,6.40
2018-01-29T06:31:20.265Z,8.10
2018-01-29T06:33:47.968Z,8.03
2018-01-29T06:36:15.491Z,6.90
2018-01-29T06:38:43.924Z,6.30
2018-01-29T06:41:11.444Z,6.40
2018-01-29T06:43:38.975Z,5.53
2018-01-29T06:46:06.513Z,5.63
2018-01-29T06:48:34.075Z,5.80
2018-01-29T06:51:02.484Z,5.63
2018-01-29T06:53:29.997Z,4.70
2018-01-29T06:55:58.316Z,5.00
2018-01-29T06:58:25.835Z,5.20
2018-01-29T07:00:53.441Z,4.70
2018-01-29T07:03:20.993Z,4.00
2018-01-29T07:05:50.252Z,4.13
2018-01-29T07:08:17.789Z,4.13
2018-01-29T07:10:45.321Z,3.93
2018-01-29T07:13:13.648Z,4.00
2018-01-29T07:15:41.184Z,4.07
2018-01-29T07:18:08.720Z,4.70
2018-01-29T07:20:37.024Z,4.87
2018-01-29T07:23:04.543Z,5.70
2018-01-29T07:25:32.109Z,4.40
2018-01-29T07:27:59.648Z,4.80
2018-01-29T07:30:27.199Z,4.60
2018-01-29T07:32:54.787Z,4.80
2018-01-29T07:35:22.543Z,4.80
2018-01-29T07:37:50.125Z,5.10
2018-01-29T07:40:18.408Z,5.20
2018-01-29T07:42:46.717Z,4.50
2018-01-29T07:45:16.382Z,3.83
2018-01-29T07:47:44.201Z,3.73
2018-01-29T07:50:11.718Z,3.47
2018-01-29T07:52:39.304Z,4.50
2018-01-29T07:55:06.836Z,4.87
2018-01-29T07:57:34.369Z,3.87
2018-01-29T08:00:01.930Z,4.00
2018-01-29T08:02:29.512Z,3.80
2018-01-29T08:04:57.087Z,3.30
2018-01-29T08:07:26.112Z,4.03
2018-01-29T08:09:53.653Z,4.20
2018-01-29T08:12:21.991Z,3.77
2018-01-29T08:14:49.542Z,4.47
2018-01-29T08:17:17.093Z,4.30
2018-01-29T08:19:44.746Z,3.97
2018-01-29T08:22:12.328Z,4.83
2018-01-29T08:24:39.896Z,4.40
2018-01-29T08:27:08.151Z,4.30
2018-01-29T08:29:36.470Z,4.00
2018-01-29T08:32:04.008Z,4.20
2018-01-29T08:34:31.547Z,3.97
2018-01-29T08:36:59.844Z,5.00
2018-01-29T08:39:27.385Z,5.10
2018-01-29T08:41:55.199Z,5.13
2018-01-29T08:44:22.790Z,4.83
2018-01-29T08:46:50.433Z,4.90
2018-01-29T08:49:17.960Z,5.00
2018-01-29T08:51:45.520Z,4.80
2018-01-29T08:54:13.086Z,4.00
2018-01-29T08:56:40.627Z,4.30
2018-01-29T08:59:08.160Z,4.37
2018-01-29T09:01:35.709Z,4.50
2018-01-29T09:04:03.499Z,3.67
2018-01-29T09:06:31.706Z,3.97
2018-01-29T09:08:59.236Z,3.90
2018-01-29T09:11:26.771Z,3.50
2018-01-29T09:13:55.992Z,3.47
2018-01-29T09:16:24.274Z,3.70
2018-01-29T09:18:51.905Z,3.73
2018-01-29T09:21:19.415Z,3.40
2018-01-29T09:23:47.100Z,3.50
2018-01-29T09:26:14.624Z,3.67
2018-01-29T09:28:43.756Z,4.17
2018-01-29T09:31:11.350Z,3.60
2018-01-29T09:33:38.884Z,4.13
2018-01-29T09:36:06.410Z,4.00
2018-01-29T09:38:33.948Z,4.20
2018-01-29T09:41:01.485Z,4.10
2018-01-29T09:43:29.041Z,4.10
2018-01-29T09:45:56.562Z,4.70
2018-01-29T09:48:24.102Z,4.27
2018-01-29T09:50:51.650Z,4.10
2018-01-29T09:53:19.186Z,5.17
2018-01-29T09:55:47.522Z,4.47
2018-01-29T09:58:15.055Z,4.27
2018-01-29T10:00:42.620Z,4.00
2018-01-29T10:03:10.171Z,4.47
2018-01-29T10:05:37.702Z,4.67
2018-01-29T10:08:05.502Z,4.37
2018-01-29T10:10:33.033Z,4.67
2018-01-29T10:13:00.566Z,4.60
2018-01-29T10:15:28.086Z,4.90
2018-01-29T10:17:56.370Z,5.00
2018-01-29T10:20:24.674Z,7.60
2018-01-29T10:22:52.202Z,4.50
2018-01-29T10:25:19.729Z,4.97
2018-01-29T10:27:48.029Z,5.80
2018-01-29T10:30:15.558Z,5.60
2018-01-29T10:32:43.102Z,5.13
2018-01-29T10:35:11.448Z,5.07
2018-01-29T10:37:39.074Z,4.23
2018-01-29T10:40:06.639Z,4.03
2018-01-29T10:42:34.162Z,4.40
2018-01-29T10:45:01.700Z,4.50
2018-01-29T10:47:30.017Z,4.80
2018-01-29T10:49:58.360Z,4.33
2018-01-29T10:52:25.902Z,4.50
2018-01-29T10:54:53.461Z,4.47
2018-01-29T10:57:21.013Z,3.93
2018-01-29T10:59:48.594Z,3.20
2018-01-29T11:02:16.108Z,3.60
2018-01-29T11:04:43.643Z,3.60
2018-01-29T11:07:11.167Z,3.50
2018-01-29T11:09:38.916Z,3.50
2018-01-29T11:12:06.456Z,3.63
2018-01-29T11:14:34.734Z,3.30
2018-01-29T11:17:02.243Z,3.40
2018-01-29T11:19:30.583Z,3.40
2018-01-29T11:21:58.123Z,3.77
2018-01-29T11:24:25.652Z,3.70
2018-01-29T11:26:53.961Z,4.03
2018-01-29T11:29:21.468Z,3.80
2018-01-29T11:31:49.036Z,4.07
2018-01-29T11:34:16.561Z,4.90
2018-01-29T11:36:44.084Z,4.00
2018-01-29T11:39:13.247Z,4.10
2018-01-29T11:41:40.780Z,4.30
2018-01-29T11:44:08.308Z,4.10
2018-01-29T11:46:35.917Z,3.20
2018-01-29T11:49:03.427Z,3.30
2018-01-29T11:51:30.994Z,3.90
2018-01-29T11:53:58.571Z,3.37
2018-01-29T11:56:26.101Z,3.00
2018-01-29T11:58:53.653Z,4.30
2018-01-29T12:01:21.167Z,2.80
2018-01-29T12:03:48.688Z,2.50
2018-01-29T12:06:16.194Z,2.63
2018-01-29T12:08:43.711Z,3.00
2018-01-29T12:11:11.269Z,2.80
2018-01-29T12:13:38.798Z,3.00
2018-01-29T12:16:06.302Z,3.30
2018-01-29T12:18:33.821Z,3.27
2018-01-29T12:21:02.140Z,3.63
2018-01-29T12:23:29.680Z,3.73
2018-01-29T12:25:58.034Z,4.13
2018-01-29T12:28:25.544Z,3.70
2018-01-29T12:30:53.084Z,3.80
2018-01-29T12:33:21.373Z,4.30
2018-01-29T12:35:49.685Z,3.60
2018-01-29T12:38:17.175Z,3.60
2018-01-29T12:40:44.697Z,3.33
2018-01-29T12:43:12.238Z,3.20
2018-01-29T12:45:39.756Z,3.53
2018-01-29T12:48:07.291Z,3.30
2018-01-29T12:50:34.820Z,3.93
2018-01-29T12:53:02.404Z,4.23
2018-01-29T12:55:30.698Z,4.00
2018-01-29T12:57:58.979Z,3.67
2018-01-29T13:00:27.289Z,3.60
2018-01-29T13:02:54.822Z,3.43
2018-01-29T13:05:23.126Z,9.37
2018-01-29T13:07:50.644Z,3.37
2018-01-29T13:10:18.165Z,3.40
2018-01-29T13:12:45.719Z,3.63
2018-01-29T13:15:14.010Z,3.43
2018-01-29T13:17:41.533Z,2.90
2018-01-29T13:20:09.818Z,3.20
2018-01-29T13:22:38.113Z,3.17
2018-01-29T13:25:06.684Z,3.10
2018-01-29T13:27:34.194Z,2.70
2018-01-29T13:30:01.746Z,3.03
2018-01-29T13:32:29.306Z,2.90
2018-01-29T13:34:56.849Z,2.50
2018-01-29T13:37:25.228Z,2.80
2018-01-29T13:39:52.749Z,2.30
2018-01-29T13:42:20.271Z,1.80
2018-01-29T13:44:48.974Z,2.23
2018-01-29T13:47:17.262Z,1.90
2018-01-29T13:49:44.785Z,2.10
2018-01-29T13:52:12.381Z,1.97
2018-01-29T13:54:40.663Z,2.00
2018-01-29T13:57:08.221Z,2.50
2018-01-29T13:59:36.514Z,2.50
2018-01-29T14:02:04.149Z,2.90
2018-01-29T14:04:31.657Z,2.40
2018-01-29T14:07:00.048Z,2.60
2018-01-29T14:09:27.571Z,2.40
2018-01-29T14:11:55.229Z,2.47
2018-01-29T14:14:22.806Z,2.00
2018-01-29T14:16:50.335Z,2.13
2018-01-29T14:19:17.940Z,1.83
2018-01-29T14:21:46.262Z,2.20
2018-01-29T14:24:13.905Z,2.20
2018-01-29T14:26:42.200Z,2.10
2018-01-29T14:29:09.717Z,2.70
2018-01-29T14:31:37.219Z,2.30
2018-01-29T14:34:04.885Z,1.63
2018-01-29T14:36:33.171Z,2.30
2018-01-29T14:39:01.461Z,1.87
2018-01-29T14:41:28.981Z,2.67
2018-01-29T14:43:56.593Z,1.80
2018-01-29T14:46:24.147Z,1.70
2018-01-29T14:48:52.579Z,2.07
2018-01-29T14:51:20.104Z,1.87
2018-01-29T14:53:47.640Z,2.10
2018-01-29T14:56:15.161Z,1.87
2018-01-29T14:58:42.728Z,1.90
2018-01-29T15:01:10.262Z,1.70
2018-01-29T15:03:38.367Z,1.87
2018-01-29T15:06:06.085Z,1.70
2018-01-29T15:08:33.592Z,1.50
2018-01-29T15:11:01.131Z,2.23
2018-01-29T15:13:29.463Z,1.87
2018-01-29T15:15:57.728Z,2.00
2018-01-29T15:18:26.007Z,2.17
2018-01-29T15:20:53.539Z,1.90
2018-01-29T15:23:21.892Z,2.20
2018-01-29T15:25:49.407Z,1.90
2018-01-29T15:28:16.918Z,2.33
2018-01-29T15:30:45.206Z,2.30
2018-01-29T15:33:12.726Z,2.47
2018-01-29T15:35:40.300Z,2.60
2018-01-29T15:38:07.851Z,2.10
2018-01-29T15:40:35.378Z,2.23
2018-01-29T15:43:02.916Z,2.23
2018-01-29T15:45:32.193Z,1.83
2018-01-29T15:47:59.899Z,2.00
2018-01-29T15:50:27.426Z,1.90
2018-01-29T15:52:54.958Z,1.73
2018-01-29T15:55:23.267Z,1.70
2018-01-29T15:57:50.796Z,1.37
2018-01-29T16:00:19.096Z,1.53
2018-01-29T16:02:46.633Z,1.60
2018-01-29T16:05:14.161Z,1.33
2018-01-29T16:07:41.694Z,1.53
2018-01-29T16:10:09.237Z,1.50
2018-01-29T16:12:37.563Z,1.90
2018-01-29T16:15:05.105Z,1.50
2018-01-29T16:17:32.635Z,1.53
2018-01-29T16:20:00.147Z,2.33
2018-01-29T16:22:27.698Z,1.50
2018-01-29T16:24:56.027Z,2.10
2018-01-29T16:27:23.643Z,1.50
2018-01-29T16:29:51.980Z,6.17
2018-01-29T16:32:20.447Z,3.33
2018-01-29T16:34:48.677Z,2.27
2018-01-29T16:37:16.212Z,1.80
2018-01-29T16:39:43.846Z,1.80
2018-01-29T16:42:11.393Z,2.20
2018-01-29T16:44:39.704Z,4.43
2018-01-29T16:47:07.963Z,3.30
2018-01-29T16:49:35.501Z,1.53
2018-01-29T16:52:03.172Z,2.97
2018-01-29T16:54:30.701Z,2.20
2018-01-29T16:56:58.281Z,1.67
2018-01-29T16:59:26.749Z,1.70
2018-01-29T17:01:54.379Z,1.87
2018-01-29T17:04:22.368Z,1.90
2018-01-29T17:06:49.900Z,1.77
2018-01-29T17:09:18.607Z,2.00
2018-01-29T17:11:47.545Z,1.70
2018-01-29T17:14:15.093Z,2.70
2018-01-29T17:16:42.614Z,2.07
2018-01-29T17:19:10.204Z,2.10
2018-01-29T17:21:37.752Z,1.90
2018-01-29T17:24:06.042Z,1.63
2018-01-29T17:26:34.334Z,2.03
2018-01-29T17:29:01.871Z,2.33
2018-01-29T17:31:29.676Z,3.47
2018-01-29T17:33:57.217Z,3.27
2018-01-29T17:36:25.512Z,3.00
2018-01-29T17:38:52.997Z,3.03
2018-01-29T17:41:20.529Z,7.17
2018-01-29T17:43:49.166Z,52.70
2018-01-29T17:46:16.994Z,2.60
2018-01-29T17:48:45.283Z,2.60
2018-01-29T17:51:12.846Z,2.53
2018-01-29T17:53:41.137Z,2.20
2018-01-29T17:56:11.139Z,2.63
2018-01-29T17:58:38.898Z,2.93
2018-01-29T18:01:07.238Z,2.90
2018-01-29T18:03:34.747Z,2.67
2018-01-29T18:06:02.272Z,2.87
2018-01-29T18:08:29.779Z,2.80
2018-01-29T18:10:58.193Z,2.57
2018-01-29T18:13:25.720Z,2.73
2018-01-29T18:15:53.261Z,2.50
2018-01-29T18:18:20.789Z,2.73
2018-01-29T18:20:49.332Z,2.77
2018-01-29T18:23:16.885Z,2.80
2018-01-29T18:25:44.421Z,2.90
2018-01-29T18:28:11.960Z,3.10
2018-01-29T18:30:40.248Z,3.07
2018-01-29T18:33:07.812Z,2.77
2018-01-29T18:35:35.567Z,2.80
2018-01-29T18:38:04.040Z,2.63
2018-01-29T18:40:31.575Z,3.00
2018-01-29T18:42:59.801Z,2.93
2018-01-29T18:45:28.860Z,2.87
2018-01-29T18:47:58.256Z,2.90
2018-01-29T18:50:25.825Z,3.60
2018-01-29T18:52:54.166Z,3.10
2018-01-29T18:55:22.454Z,3.13
2018-01-29T18:57:50.063Z,2.80
2018-01-29T19:00:17.622Z,3.50
2018-01-29T19:02:45.127Z,3.30
2018-01-29T19:05:13.424Z,3.20
2018-01-29T19:07:41.714Z,3.47
2018-01-29T19:10:09.393Z,3.00
2018-01-29T19:12:36.956Z,2.73
2018-01-29T19:15:04.556Z,2.87
2018-01-29T19:17:32.129Z,9.60
2018-01-29T19:19:59.670Z,10.80
2018-01-29T19:22:27.606Z,2.90
2018-01-29T19:24:55.493Z,2.60
2018-01-29T19:27:23.864Z,3.00
2018-01-29T19:29:52.168Z,2.50
2018-01-29T19:32:19.707Z,2.40
2018-01-29T19:34:48.002Z,2.33
2018-01-29T19:37:15.866Z,2.20
2018-01-29T19:39:44.169Z,2.37
2018-01-29T19:42:11.701Z,2.60
2018-01-29T19:44:40.023Z,2.80
2018-01-29T19:47:07.600Z,2.60
2018-01-29T19:49:35.139Z,2.90
2018-01-29T19:52:02.699Z,2.77
2018-01-29T19:54:31.017Z,2.30
2018-01-29T19:56:59.558Z,2.60
2018-01-29T19:59:27.852Z,3.00
2018-01-29T20:01:55.440Z,2.37
2018-01-29T20:04:22.927Z,2.90
2018-01-29T20:06:51.127Z,2.87
2018-01-29T20:09:18.678Z,3.00
2018-01-29T20:11:46.218Z,3.20
2018-01-29T20:14:13.814Z,2.90
2018-01-29T20:16:42.112Z,3.00
2018-01-29T20:19:09.841Z,3.20
2018-01-29T20:21:38.267Z,2.97
2018-01-29T20:24:05.824Z,2.77
2018-01-29T20:26:33.370Z,2.97
2018-01-29T20:29:00.973Z,3.00
2018-01-29T20:31:30.456Z,2.90
2018-01-29T20:33:58.000Z,3.27
2018-01-29T20:36:25.574Z,3.43
2018-01-29T20:38:53.109Z,3.73
2018-01-29T20:41:20.847Z,3.60
2018-01-29T20:43:48.461Z,3.03
2018-01-29T20:46:16.155Z,2.80
2018-01-29T20:48:45.228Z,2.90
2018-01-29T20:51:12.813Z,3.17
2018-01-29T20:53:41.251Z,3.40
2018-01-29T20:56:09.691Z,3.20
2018-01-29T20:58:37.258Z,3.40
2018-01-29T21:01:07.298Z,3.17
2018-01-29T21:03:35.627Z,3.40
2018-01-29T21:06:03.291Z,3.60
2018-01-29T21:08:30.844Z,3.33
2018-01-29T21:10:58.413Z,2.77
2018-01-29T21:13:27.425Z,2.93
2018-01-29T21:15:54.956Z,3.40
2018-01-29T21:18:23.350Z,3.00
2018-01-29T21:20:51.659Z,3.40
2018-01-29T21:23:19.244Z,2.87
2018-01-29T21:25:48.250Z,3.10
2018-01-29T21:28:15.832Z,3.03
2018-01-29T21:30:43.348Z,2.70
2018-01-29T21:33:11.036Z,3.40
2018-01-29T21:35:38.740Z,3.20
2018-01-29T21:38:07.076Z,3.30
2018-01-29T21:40:35.129Z,3.37
2018-01-29T21:43:03.479Z,3.23
2018-01-29T21:45:31.211Z,3.13
2018-01-29T21:47:58.751Z,2.90
2018-01-29T21:50:27.254Z,3.23
2018-01-29T21:52:54.815Z,3.27
2018-01-29T21:55:22.340Z,3.63
2018-01-29T21:57:50.645Z,3.20
2018-01-29T22:00:19.251Z,3.30
2018-01-29T22:02:47.786Z,3.40
2018-01-29T22:05:15.339Z,3.50
2018-01-29T22:07:43.994Z,3.43
2018-01-29T22:10:11.936Z,2.73
2018-01-29T22:12:40.249Z,3.43
2018-01-29T22:15:07.810Z,2.90
2018-01-29T22:17:35.812Z,2.80
2018-01-29T22:20:03.373Z,3.13
2018-01-29T22:22:31.780Z,2.33
2018-01-29T22:24:59.350Z,3.10
2018-01-29T22:27:26.865Z,3.03
2018-01-29T22:29:54.433Z,3.10
2018-01-29T22:32:21.978Z,3.07
2018-01-29T22:34:50.273Z,3.20
2018-01-29T22:37:18.087Z,3.00
2018-01-29T22:39:45.632Z,3.10
2018-01-29T22:42:13.155Z,2.40
2018-01-29T22:44:41.641Z,2.60
2018-01-29T22:47:09.920Z,2.70
2018-01-29T22:49:37.485Z,2.87
2018-01-29T22:52:05.845Z,2.80
2018-01-29T22:54:33.353Z,2.80
2018-01-29T22:57:00.900Z,2.90
2018-01-29T22:59:29.523Z,3.00
2018-01-29T23:01:57.052Z,2.77
2018-01-29T23:04:25.357Z,2.80
2018-01-29T23:06:52.913Z,3.07
2018-01-29T23:09:21.206Z,2.80
2018-01-29T23:11:48.782Z,3.00
2018-01-29T23:14:17.117Z,3.30
2018-01-29T23:16:44.636Z,3.20
2018-01-29T23:19:12.263Z,3.23
2018-01-29T23:21:40.550Z,3.20
2018-01-29T23:24:09.005Z,3.57
2018-01-29T23:26:36.559Z,3.30
2018-01-29T23:29:04.099Z,3.20
2018-01-29T23:31:31.804Z,2.60
2018-01-29T23:33:59.325Z,3.00
2018-01-29T23:36:26.850Z,3.10
2018-01-29T23:38:54.388Z,3.60
2018-01-29T23:41:21.922Z,3.33
2018-01-29T23:43:49.691Z,3.20
2018-01-29T23:46:17.222Z,3.40
2018-01-29T23:48:45.540Z,3.80
2018-01-29T23:51:13.093Z,3.50
2018-01-29T23:53:40.621Z,3.70
2018-01-29T23:56:08.153Z,3.70
2018-01-29T23:58:36.449Z,3.87
